Time;durP1;ratioP1;P1;durP2;ratioP2;P2;SDS_P1;SDS_P2;PMS_P1;PMS_P2;Temp;Humidity;BMP_temperature;BMP_pressure;BME280_temperature;BME280_humidity;BME280_pressure;Samples;Min_cycle;Max_cycle;Signal;HPM_P1;HPM_P2
2022/07/02 00:02:10;;;;;;;4.85;3.95;;;13.50;99.90;;;;;;5085837;28;20082;-85
2022/07/02 00:04:43;;;;;;;6.38;4.15;;;13.40;99.90;;;;;;5089484;28;20180;-84
2022/07/02 00:07:09;;;;;;;4.55;4.10;;;13.40;99.90;;;;;;5107986;27;20059;-85
2022/07/02 00:09:36;;;;;;;4.10;3.70;;;13.30;99.90;;;;;;5118310;27;20208;-85
2022/07/02 00:12:02;;;;;;;6.03;3.88;;;13.30;99.90;;;;;;5090798;28;20123;-85
2022/07/02 00:14:28;;;;;;;4.50;4.10;;;13.30;99.90;;;;;;5107464;28;20074;-85
2022/07/02 00:16:54;;;;;;;6.88;4.28;;;13.20;99.90;;;;;;5131524;27;20092;-83
2022/07/02 00:19:21;;;;;;;5.32;4.13;;;13.20;99.90;;;;;;5131515;28;20024;-83
2022/07/02 00:21:48;;;;;;;4.75;4.30;;;13.10;99.90;;;;;;5128105;28;20048;-83
2022/07/02 00:24:13;;;;;;;5.28;3.88;;;13.10;99.90;;;;;;5124825;28;20477;-84
2022/07/02 00:26:43;;;;;;;4.72;4.32;;;13.00;99.90;;;;;;5093436;28;20043;-85
2022/07/02 00:29:35;;;;;;;5.03;4.53;;;13.00;99.90;;;;;;5093915;28;20035;-84
2022/07/02 00:32:01;;;;;;;5.40;4.47;;;13.00;99.90;;;;;;5092555;28;20035;-85
2022/07/02 00:34:30;;;;;;;5.15;4.47;;;12.90;99.90;;;;;;5111916;27;20158;-85
2022/07/02 00:36:57;;;;;;;4.70;4.40;;;12.90;99.90;;;;;;5086584;28;20041;-85
2022/07/02 00:39:22;;;;;;;4.85;4.40;;;12.90;99.90;;;;;;5085595;28;20288;-85
2022/07/02 00:41:49;;;;;;;4.90;4.47;;;12.90;99.90;;;;;;5075780;28;20066;-85
2022/07/02 00:44:17;;;;;;;6.47;4.57;;;12.90;99.90;;;;;;5100842;27;20038;-85
2022/07/02 00:46:44;;;;;;;5.13;4.68;;;12.90;99.90;;;;;;5087265;28;20043;-85
2022/07/02 00:49:10;;;;;;;5.20;4.55;;;12.90;99.90;;;;;;5083179;28;20064;-85
2022/07/02 00:51:35;;;;;;;6.57;4.30;;;12.80;99.90;;;;;;5083659;27;20031;-85
2022/07/02 00:54:02;;;;;;;5.72;5.20;;;12.80;99.90;;;;;;5100501;28;20047;-85
2022/07/02 00:56:28;;;;;;;5.57;5.00;;;12.80;99.90;;;;;;5078489;28;20619;-85
2022/07/02 00:58:54;;;;;;;4.57;3.95;;;12.70;99.90;;;;;;5102558;28;20488;-85
2022/07/02 01:01:20;;;;;;;6.28;4.82;;;12.70;99.90;;;;;;5116096;27;20119;-85
2022/07/02 01:03:48;;;;;;;4.28;3.72;;;12.70;99.90;;;;;;5115533;27;20055;-85
2022/07/02 01:06:16;;;;;;;6.43;4.97;;;12.60;99.90;;;;;;5086921;28;20034;-85
2022/07/02 01:11:30;;;;;;;6.45;4.93;;;12.60;99.90;;;;;;5104509;27;20043;-85
2022/07/02 01:13:57;;;;;;;7.20;4.80;;;12.60;99.90;;;;;;5087144;28;20400;-85
2022/07/02 01:16:23;;;;;;;5.35;4.85;;;12.60;99.90;;;;;;5092510;28;20047;-85
2022/07/02 01:18:49;;;;;;;6.13;5.30;;;12.50;99.90;;;;;;5118797;27;20415;-85
2022/07/02 01:21:14;;;;;;;6.18;5.57;;;12.50;99.90;;;;;;5104977;27;20035;-85
2022/07/02 01:23:40;;;;;;;6.25;5.65;;;12.50;99.90;;;;;;5091001;28;20031;-85
2022/07/02 01:26:06;;;;;;;6.07;5.53;;;12.50;99.90;;;;;;5090328;27;20036;-85
2022/07/02 01:28:31;;;;;;;7.22;6.55;;;12.40;99.90;;;;;;5118458;27;20066;-84
2022/07/02 01:30:57;;;;;;;7.43;6.60;;;12.40;99.90;;;;;;5110779;27;20081;-85
2022/07/02 01:33:23;;;;;;;7.57;6.93;;;12.40;99.90;;;;;;5124382;27;20039;-85
2022/07/02 01:35:49;;;;;;;8.18;7.22;;;12.30;99.90;;;;;;5130751;27;20124;-85
2022/07/02 01:38:14;;;;;;;7.35;6.65;;;12.40;99.90;;;;;;5084909;28;20046;-85
2022/07/02 01:40:41;;;;;;;7.10;6.50;;;12.30;99.90;;;;;;5097181;28;20502;-84
2022/07/02 01:43:06;;;;;;;8.40;7.65;;;12.30;99.90;;;;;;5112419;28;20550;-84
2022/07/02 01:45:32;;;;;;;7.72;7.03;;;12.30;99.90;;;;;;5092120;28;20036;-84
2022/07/02 01:47:58;;;;;;;8.70;7.90;;;12.20;99.90;;;;;;5109094;28;20089;-83
2022/07/02 01:50:23;;;;;;;9.57;8.52;;;12.20;99.90;;;;;;5100923;28;20032;-85
2022/07/02 01:52:51;;;;;;;9.45;8.57;;;12.20;99.90;;;;;;5090622;28;20509;-84
2022/07/02 01:55:16;;;;;;;9.23;8.30;;;12.10;99.90;;;;;;5103703;28;20043;-84
2022/07/02 01:57:42;;;;;;;9.65;8.75;;;12.10;99.90;;;;;;5119127;28;20035;-84
2022/07/02 02:00:11;;;;;;;9.30;8.60;;;12.10;99.90;;;;;;5109278;28;20028;-85
2022/07/02 02:02:37;;;;;;;8.98;8.18;;;12.10;99.90;;;;;;5093227;28;20031;-84
2022/07/02 02:05:03;;;;;;;9.32;8.40;;;12.10;99.90;;;;;;5098573;28;20047;-84
2022/07/02 02:07:30;;;;;;;9.40;7.88;;;12.10;99.90;;;;;;5098594;28;20111;-84
2022/07/02 02:09:56;;;;;;;8.75;8.05;;;12.00;99.90;;;;;;5102417;28;20108;-85
2022/07/02 02:12:22;;;;;;;9.70;8.73;;;12.00;99.90;;;;;;5091885;28;20074;-84
2022/07/02 02:14:47;;;;;;;9.50;8.70;;;12.00;99.90;;;;;;5090843;28;20035;-84
2022/07/02 02:17:13;;;;;;;8.63;7.68;;;12.00;99.90;;;;;;5109509;28;20053;-84
2022/07/02 02:19:39;;;;;;;9.98;9.05;;;11.90;99.90;;;;;;5080328;28;20035;-84
2022/07/02 02:22:05;;;;;;;8.75;7.85;;;11.90;99.90;;;;;;5079941;28;20181;-84
2022/07/02 02:24:31;;;;;;;9.25;8.50;;;11.90;99.90;;;;;;5096364;28;20042;-85
2022/07/02 02:26:57;;;;;;;9.38;8.43;;;11.90;99.90;;;;;;5104477;28;20037;-84
2022/07/02 02:29:23;;;;;;;10.00;9.13;;;11.90;99.90;;;;;;5089301;28;20043;-84
2022/07/02 02:31:48;;;;;;;9.95;9.02;;;11.90;99.90;;;;;;5109629;28;20414;-85
2022/07/02 02:34:14;;;;;;;11.38;10.18;;;11.80;99.90;;;;;;5112184;28;20413;-82
2022/07/02 02:36:40;;;;;;;12.00;10.80;;;11.80;99.90;;;;;;5091616;28;20036;-83
2022/07/02 02:39:05;;;;;;;11.25;10.10;;;11.80;99.90;;;;;;5111973;28;20036;-84
2022/07/02 02:41:31;;;;;;;9.95;8.88;;;11.80;99.90;;;;;;5101900;28;20547;-84
2022/07/02 02:43:57;;;;;;;10.13;9.20;;;11.80;99.90;;;;;;5114843;28;20634;-84
2022/07/02 02:46:22;;;;;;;12.30;9.55;;;11.70;99.90;;;;;;5091565;28;20406;-84
2022/07/02 02:48:48;;;;;;;9.82;8.90;;;11.80;99.90;;;;;;5118545;27;20035;-84
2022/07/02 02:51:15;;;;;;;12.02;9.57;;;11.70;99.90;;;;;;5094430;27;20049;-84
2022/07/02 02:53:44;;;;;;;10.07;9.05;;;11.70;99.90;;;;;;5117640;27;20080;-84
2022/07/02 02:56:11;;;;;;;11.40;10.25;;;11.70;99.90;;;;;;5103470;28;20104;-85
2022/07/02 02:58:37;;;;;;;11.20;10.07;;;11.70;99.90;;;;;;5107855;28;20063;-84
2022/07/02 03:01:04;;;;;;;10.70;9.63;;;11.70;99.90;;;;;;5082699;27;20044;-84
2022/07/02 03:03:30;;;;;;;11.07;9.73;;;11.70;99.90;;;;;;5106506;28;20657;-84
2022/07/02 03:05:55;;;;;;;10.82;9.73;;;11.70;99.90;;;;;;5111880;27;20122;-84
2022/07/02 03:08:21;;;;;;;10.93;9.82;;;11.70;99.90;;;;;;5122676;27;20091;-84
2022/07/02 03:10:47;;;;;;;11.35;10.25;;;11.60;99.90;;;;;;5104660;28;20032;-84
2022/07/02 03:13:14;;;;;;;11.65;10.38;;;11.60;99.90;;;;;;5110794;28;20054;-84
2022/07/02 03:15:40;;;;;;;10.27;9.27;;;11.60;99.90;;;;;;5093449;28;20469;-84
2022/07/02 03:18:05;;;;;;;11.85;10.55;;;11.60;99.90;;;;;;5111323;28;20050;-85
2022/07/02 03:20:31;;;;;;;12.30;10.27;;;11.60;99.90;;;;;;5116693;27;20039;-85
2022/07/02 03:22:58;;;;;;;11.02;9.93;;;11.60;99.90;;;;;;5106231;27;20032;-85
2022/07/02 03:25:24;;;;;;;11.43;10.25;;;11.70;99.90;;;;;;5123546;27;20028;-84
2022/07/02 03:27:50;;;;;;;11.75;10.60;;;11.70;99.90;;;;;;5094515;28;20069;-84
2022/07/02 03:30:16;;;;;;;10.65;9.25;;;11.70;99.90;;;;;;5094351;28;20035;-85
2022/07/02 03:32:42;;;;;;;11.52;10.35;;;11.70;99.90;;;;;;5116303;27;20035;-85
2022/07/02 03:35:07;;;;;;;12.27;10.23;;;11.80;99.90;;;;;;5114714;27;20055;-85
2022/07/02 03:37:33;;;;;;;12.07;10.18;;;11.80;99.90;;;;;;5109496;28;20039;-84
2022/07/02 03:39:59;;;;;;;12.57;11.13;;;11.90;99.90;;;;;;5110230;28;20045;-85
2022/07/02 03:42:25;;;;;;;11.32;10.32;;;11.90;99.90;;;;;;5104278;28;20036;-85
2022/07/02 03:44:50;;;;;;;11.35;9.90;;;12.00;99.90;;;;;;5092585;28;20039;-85
2022/07/02 03:47:16;;;;;;;11.50;9.73;;;12.00;99.90;;;;;;5104932;27;20031;-84
2022/07/02 03:49:42;;;;;;;10.80;9.70;;;12.00;99.90;;;;;;5084712;28;20043;-85
2022/07/02 03:52:07;;;;;;;10.80;9.50;;;12.10;99.90;;;;;;5104412;28;20185;-84
2022/07/02 03:54:33;;;;;;;13.68;9.98;;;12.00;99.90;;;;;;5103511;28;20050;-84
2022/07/02 03:56:59;;;;;;;10.60;9.50;;;12.00;99.90;;;;;;5104264;28;20043;-84
2022/07/02 03:59:24;;;;;;;11.13;10.00;;;12.00;99.90;;;;;;5091151;28;20043;-85
2022/07/02 04:01:52;;;;;;;11.43;9.77;;;12.10;99.90;;;;;;5103867;28;20395;-84
2022/07/02 04:04:19;;;;;;;12.30;11.02;;;12.10;99.90;;;;;;5087312;28;20031;-85
2022/07/02 04:06:44;;;;;;;12.05;10.75;;;12.10;99.90;;;;;;5087578;28;20038;-85
2022/07/02 04:09:10;;;;;;;11.77;10.65;;;12.20;99.90;;;;;;5091953;28;20106;-84
2022/07/02 04:11:36;;;;;;;12.88;11.57;;;12.20;99.90;;;;;;5100331;28;20035;-84
2022/07/02 04:14:02;;;;;;;11.55;10.43;;;12.20;99.90;;;;;;5087466;28;20118;-85
2022/07/02 04:16:28;;;;;;;11.82;10.60;;;12.30;99.90;;;;;;5093012;28;20040;-85
2022/07/02 04:18:53;;;;;;;12.27;11.07;;;12.30;99.90;;;;;;5088633;28;20043;-84
2022/07/02 04:21:19;;;;;;;12.27;10.98;;;12.40;99.90;;;;;;5098730;28;20081;-85
2022/07/02 04:23:45;;;;;;;12.90;11.60;;;12.40;99.90;;;;;;5092834;27;20035;-85
2022/07/02 04:26:10;;;;;;;12.90;11.60;;;12.40;99.90;;;;;;5112310;27;20039;-84
2022/07/02 04:28:36;;;;;;;10.13;9.13;;;12.50;99.90;;;;;;5098109;28;20032;-84
2022/07/02 04:31:01;;;;;;;12.20;10.07;;;12.50;99.90;;;;;;5109476;28;20126;-84
2022/07/02 04:33:27;;;;;;;12.10;10.63;;;12.50;99.90;;;;;;5110275;28;20032;-83
2022/07/02 04:35:53;;;;;;;11.85;10.73;;;12.60;99.90;;;;;;5092741;28;20112;-83
2022/07/02 04:38:18;;;;;;;11.82;10.63;;;12.70;99.90;;;;;;5105462;28;20505;-84
2022/07/02 04:40:44;;;;;;;12.98;11.05;;;12.80;99.90;;;;;;5099886;28;20040;-84
2022/07/02 04:43:10;;;;;;;11.82;10.60;;;12.80;99.90;;;;;;5084144;27;20088;-84
2022/07/02 04:45:35;;;;;;;11.65;10.45;;;12.80;99.90;;;;;;5086460;28;20028;-84
2022/07/02 04:48:01;;;;;;;11.45;10.38;;;12.90;99.90;;;;;;5102922;28;20047;-84
2022/07/02 04:50:27;;;;;;;11.25;10.15;;;13.00;99.90;;;;;;5091445;28;20497;-83
2022/07/02 04:52:53;;;;;;;11.27;10.13;;;13.10;99.90;;;;;;5109284;28;20043;-83
2022/07/02 04:55:18;;;;;;;11.65;10.32;;;13.10;99.90;;;;;;5106542;28;20084;-85
2022/07/02 04:57:44;;;;;;;11.80;10.25;;;13.10;99.90;;;;;;5090732;28;20106;-83
2022/07/02 05:00:10;;;;;;;11.90;10.40;;;13.20;99.90;;;;;;5111347;28;20123;-84
2022/07/02 05:02:36;;;;;;;12.35;10.90;;;13.20;99.90;;;;;;5088972;28;20036;-83
2022/07/02 05:05:02;;;;;;;11.85;10.75;;;13.30;99.90;;;;;;5086970;28;20513;-83
2022/07/02 05:07:28;;;;;;;11.93;10.55;;;13.30;99.90;;;;;;5108904;28;20111;-84
2022/07/02 05:09:53;;;;;;;12.70;10.32;;;13.40;99.90;;;;;;5100320;28;20031;-85
2022/07/02 05:12:19;;;;;;;13.70;10.77;;;13.40;99.90;;;;;;5109197;28;20035;-85
2022/07/02 05:14:45;;;;;;;12.10;10.93;;;13.50;99.90;;;;;;5097781;28;20039;-84
2022/07/02 05:17:10;;;;;;;12.93;11.18;;;13.60;99.90;;;;;;5107626;28;20394;-84
2022/07/02 05:19:36;;;;;;;11.63;10.48;;;13.70;99.90;;;;;;5108056;28;20425;-84
2022/07/02 05:22:02;;;;;;;12.10;10.63;;;13.80;99.90;;;;;;5092509;27;20043;-84
2022/07/02 05:24:27;;;;;;;14.23;11.20;;;13.80;99.90;;;;;;5101067;28;20043;-84
2022/07/02 05:26:53;;;;;;;11.05;9.93;;;13.90;99.90;;;;;;5109080;28;20078;-84
2022/07/02 05:29:19;;;;;;;12.40;10.38;;;14.00;99.90;;;;;;5089913;28;20524;-84
2022/07/02 05:31:44;;;;;;;10.63;9.63;;;14.10;99.90;;;;;;5095220;28;20032;-84
2022/07/02 05:34:10;;;;;;;11.65;10.30;;;14.20;99.90;;;;;;5098673;28;20047;-85
2022/07/02 05:36:35;;;;;;;13.35;9.30;;;14.20;99.90;;;;;;5079738;28;20065;-85
2022/07/02 05:39:01;;;;;;;10.30;9.18;;;14.40;99.90;;;;;;5081108;28;20032;-84
2022/07/02 05:41:27;;;;;;;11.38;9.60;;;14.50;99.90;;;;;;5090737;27;20452;-83
2022/07/02 05:43:53;;;;;;;9.40;8.57;;;14.60;99.90;;;;;;5105833;28;20039;-84
2022/07/02 05:46:18;;;;;;;9.68;8.77;;;14.70;99.90;;;;;;5088663;28;20114;-84
2022/07/02 05:48:44;;;;;;;8.98;8.10;;;14.80;99.90;;;;;;5090814;28;20143;-84
2022/07/02 05:51:09;;;;;;;9.82;8.93;;;14.90;99.90;;;;;;5090233;28;20031;-85
2022/07/02 05:53:35;;;;;;;9.93;8.25;;;15.00;99.90;;;;;;5103221;28;20046;-84
2022/07/02 05:56:01;;;;;;;8.13;7.30;;;15.10;99.90;;;;;;5122568;28;20028;-83
2022/07/02 05:58:27;;;;;;;7.80;7.03;;;15.10;99.90;;;;;;5130509;28;20030;-83
2022/07/02 06:00:53;;;;;;;9.43;6.53;;;15.30;99.90;;;;;;5109217;28;20058;-82
2022/07/02 06:03:19;;;;;;;7.75;6.53;;;15.30;99.90;;;;;;5116343;28;20078;-84
2022/07/02 06:08:28;;;;;;;6.03;5.50;;;15.50;99.90;;;;;;5100059;28;20032;-84
2022/07/02 06:10:54;;;;;;;6.25;5.43;;;15.70;99.90;;;;;;5096918;28;20042;-85
2022/07/02 06:13:20;;;;;;;5.65;5.07;;;15.80;99.90;;;;;;5099045;28;20063;-84
2022/07/02 06:15:45;;;;;;;7.68;5.78;;;15.90;99.90;;;;;;5094133;28;20067;-84
2022/07/02 06:18:14;;;;;;;6.18;4.80;;;16.00;99.90;;;;;;5085308;28;20047;-85
2022/07/02 06:20:40;;;;;;;5.60;5.15;;;16.10;99.90;;;;;;5091680;28;20114;-85
2022/07/02 06:23:05;;;;;;;7.88;5.63;;;16.20;99.90;;;;;;5111018;27;20075;-85
2022/07/02 06:25:32;;;;;;;9.73;5.20;;;16.30;99.90;;;;;;5102970;28;20074;-85
2022/07/02 06:27:57;;;;;;;4.75;4.28;;;16.40;99.90;;;;;;5091843;28;20027;-85
2022/07/02 06:30:23;;;;;;;6.10;5.03;;;16.50;99.90;;;;;;5085200;28;20042;-85
2022/07/02 06:32:52;;;;;;;8.25;4.40;;;16.60;99.90;;;;;;5099042;28;20043;-85
2022/07/02 06:35:18;;;;;;;7.60;4.68;;;16.70;99.90;;;;;;5096677;28;20652;-86
2022/07/02 06:37:44;;;;;;;8.25;4.80;;;16.80;99.90;;;;;;5084524;28;20039;-85
2022/07/02 06:40:10;;;;;;;5.43;3.92;;;16.90;99.90;;;;;;5115621;27;20123;-85
2022/07/02 06:42:35;;;;;;;6.82;4.05;;;17.00;99.90;;;;;;5107634;27;20042;-86
2022/07/02 06:45:02;;;;;;;6.78;3.72;;;17.10;99.90;;;;;;5116157;28;20028;-85
2022/07/02 06:47:29;;;;;;;5.63;3.30;;;17.20;99.90;;;;;;5119481;28;20054;-86
2022/07/02 06:49:56;;;;;;;5.80;3.28;;;17.30;99.90;;;;;;5128550;28;20035;-84
2022/07/02 06:52:23;;;;;;;3.28;2.90;;;17.40;99.90;;;;;;5109711;28;20046;-86
2022/07/02 06:54:49;;;;;;;2.25;2.05;;;17.50;99.90;;;;;;5089955;28;20122;-85
2022/07/02 06:57:14;;;;;;;4.65;2.10;;;17.60;99.90;;;;;;5109318;27;20453;-86
2022/07/02 06:59:40;;;;;;;4.22;1.48;;;17.80;99.90;;;;;;5126047;27;20061;-85
2022/07/02 07:02:06;;;;;;;3.15;1.52;;;17.90;99.90;;;;;;5117454;27;20115;-86
2022/07/02 07:04:33;;;;;;;3.60;1.58;;;17.90;99.90;;;;;;5094505;28;20024;-80
2022/07/02 07:07:03;;;;;;;3.38;1.70;;;18.00;99.90;;;;;;5109899;27;20039;-80
2022/07/02 07:09:29;;;;;;;3.90;1.15;;;18.10;99.90;;;;;;5088782;28;20112;-80
2022/07/02 07:11:55;;;;;;;1.70;1.13;;;18.20;99.90;;;;;;5097288;27;20027;-79
2022/07/02 07:14:21;;;;;;;3.58;1.10;;;18.30;99.90;;;;;;5106286;28;20313;-80
2022/07/02 07:16:48;;;;;;;2.65;1.10;;;18.50;99.90;;;;;;5110120;28;20038;-86
2022/07/02 07:19:14;;;;;;;1.92;1.30;;;18.60;99.90;;;;;;5115826;27;20464;-85
2022/07/02 07:21:41;;;;;;;1.73;1.10;;;18.80;99.90;;;;;;5108564;27;20073;-86
2022/07/02 07:24:08;;;;;;;3.28;1.30;;;19.00;99.90;;;;;;5108712;27;20571;-86
2022/07/02 07:26:35;;;;;;;2.78;1.10;;;19.20;99.90;;;;;;5120911;27;20600;-86
2022/07/02 07:29:01;;;;;;;1.67;1.33;;;19.30;99.90;;;;;;5108033;28;20039;-86
2022/07/02 07:31:28;;;;;;;2.35;1.38;;;19.30;99.90;;;;;;5119259;27;20484;-86
2022/07/02 07:33:55;;;;;;;3.60;1.38;;;19.40;99.90;;;;;;5118449;27;20047;-86
2022/07/02 07:36:22;;;;;;;2.00;1.05;;;19.40;99.90;;;;;;5119548;27;20462;-86
2022/07/02 07:38:50;;;;;;;1.95;1.00;;;19.30;99.90;;;;;;5098287;27;20127;-86
2022/07/02 07:41:17;;;;;;;3.72;1.20;;;19.40;99.90;;;;;;5098043;27;20035;-86
2022/07/02 07:43:42;;;;;;;2.30;1.10;;;19.60;99.90;;;;;;5105085;28;20432;-86
2022/07/02 07:46:08;;;;;;;2.90;1.05;;;19.70;99.90;;;;;;5092523;28;20035;-85
2022/07/02 07:48:34;;;;;;;2.65;1.20;;;19.90;99.90;;;;;;5115212;27;20036;-86
2022/07/02 07:51:00;;;;;;;2.70;1.10;;;19.90;99.90;;;;;;5119498;27;20044;-85
2022/07/02 07:53:26;;;;;;;1.02;0.90;;;20.00;99.90;;;;;;5085237;28;20053;-85
2022/07/02 07:55:52;;;;;;;2.55;1.00;;;20.10;99.90;;;;;;5119764;27;20039;-85
2022/07/02 07:58:18;;;;;;;2.45;1.10;;;20.30;99.90;;;;;;5112193;27;20035;-82
2022/07/02 08:00:45;;;;;;;1.58;1.00;;;20.40;99.90;;;;;;5107682;28;20039;-81
2022/07/02 08:03:11;;;;;;;3.13;1.30;;;20.50;99.90;;;;;;5109784;27;20123;-85
2022/07/02 08:05:37;;;;;;;3.05;1.20;;;20.50;99.50;;;;;;5088593;28;20028;-85
2022/07/02 08:08:03;;;;;;;2.55;1.00;;;20.60;99.90;;;;;;5100560;28;20036;-85
2022/07/02 08:10:29;;;;;;;1.48;0.90;;;20.70;99.60;;;;;;5111406;27;20046;-85
2022/07/02 08:12:55;;;;;;;2.33;1.00;;;20.90;98.90;;;;;;5096510;28;20516;-85
2022/07/02 08:15:21;;;;;;;0.95;0.70;;;20.90;97.30;;;;;;5110418;27;20040;-85
2022/07/02 08:17:47;;;;;;;1.70;0.70;;;20.90;95.20;;;;;;5106581;28;20038;-85
2022/07/02 08:20:12;;;;;;;2.30;0.60;;;21.00;94.70;;;;;;5094581;28;20486;-86
2022/07/02 08:22:38;;;;;;;0.40;0.40;;;21.10;93.50;;;;;;5087874;28;20050;-85
2022/07/02 08:25:06;;;;;;;1.40;0.70;;;21.10;89.80;;;;;;5088454;28;20036;-84
2022/07/02 08:27:35;;;;;;;2.70;0.70;;;21.20;90.20;;;;;;5092104;28;20432;-85
2022/07/02 08:30:01;;;;;;;1.90;0.80;;;21.30;86.90;;;;;;5105753;27;20039;-84
2022/07/02 08:32:26;;;;;;;0.50;0.45;;;21.40;86.60;;;;;;5116205;27;20423;-85
2022/07/02 08:34:53;;;;;;;1.48;0.70;;;21.40;86.40;;;;;;5106551;27;20494;-84
2022/07/02 08:37:22;;;;;;;2.30;0.60;;;21.50;80.30;;;;;;5091365;28;20040;-85
2022/07/02 08:39:47;;;;;;;3.15;0.70;;;21.70;81.40;;;;;;5118176;27;20046;-85
2022/07/02 08:42:24;;;;;;;0.85;0.68;;;21.80;81.10;;;;;;5128295;27;20039;-85
2022/07/02 08:44:52;;;;;;;2.50;0.50;;;22.00;69.70;;;;;;5108056;27;20036;-85
2022/07/02 08:47:19;;;;;;;0.60;0.45;;;22.10;76.50;;;;;;5126433;27;20084;-84
2022/07/02 08:49:52;;;;;;;3.60;0.77;;;22.20;73.70;;;;;;5115429;27;20028;-86
2022/07/02 08:52:19;;;;;;;1.20;0.95;;;22.20;66.60;;;;;;5100714;28;20040;-84
2022/07/02 08:54:46;;;;;;;1.85;0.60;;;22.40;75.80;;;;;;5102651;28;20079;-85
2022/07/02 08:57:13;;;;;;;1.75;0.80;;;22.80;74.70;;;;;;5106170;27;20042;-85
2022/07/02 08:59:39;;;;;;;0.60;0.50;;;22.80;68.00;;;;;;5105147;28;20035;-84
2022/07/02 09:02:13;;;;;;;1.08;0.60;;;22.80;70.30;;;;;;5121259;27;20164;-85
2022/07/02 09:04:49;;;;;;;1.42;0.73;;;23.00;68.90;;;;;;5114560;27;20039;-86
2022/07/02 09:07:16;;;;;;;2.22;0.60;;;23.30;61.40;;;;;;5110713;27;20074;-84
2022/07/02 09:09:42;;;;;;;0.80;0.70;;;23.40;65.60;;;;;;5116008;27;20035;-84
2022/07/02 09:12:13;;;;;;;1.83;0.80;;;23.50;63.00;;;;;;5102185;27;20039;-84
2022/07/02 09:14:41;;;;;;;0.98;0.80;;;23.60;59.60;;;;;;5118488;27;20154;-84
2022/07/02 09:17:08;;;;;;;1.10;0.55;;;23.60;61.70;;;;;;5099109;27;20464;-84
2022/07/02 09:19:35;;;;;;;1.90;0.80;;;23.60;63.40;;;;;;5096273;27;20520;-84
2022/07/02 09:22:01;;;;;;;3.47;0.95;;;23.70;61.30;;;;;;5101240;27;20093;-84
2022/07/02 09:24:35;;;;;;;3.00;0.90;;;23.80;65.70;;;;;;5108906;28;20626;-83
2022/07/02 09:27:07;;;;;;;3.03;1.27;;;23.90;59.70;;;;;;5093228;28;20122;-84
2022/07/02 09:29:49;;;;;;;2.67;0.90;;;24.10;66.60;;;;;;5108305;28;20114;-84
2022/07/02 09:32:17;;;;;;;2.17;0.97;;;24.20;61.60;;;;;;5100348;27;20067;-84
2022/07/02 09:34:52;;;;;;;2.30;0.90;;;24.40;70.80;;;;;;5087466;28;20281;-83
2022/07/02 09:37:23;;;;;;;2.72;1.27;;;24.40;65.40;;;;;;5109912;27;20158;-84
2022/07/02 09:39:50;;;;;;;1.83;1.02;;;24.50;66.50;;;;;;5106884;27;20072;-84
2022/07/02 09:42:26;;;;;;;1.65;0.88;;;24.70;66.10;;;;;;5101868;28;20050;-84
2022/07/02 09:44:52;;;;;;;2.92;1.23;;;24.70;56.90;;;;;;5083697;28;20040;-84
2022/07/02 09:47:33;;;;;;;2.25;0.80;;;24.40;66.60;;;;;;5126498;28;20027;-85
2022/07/02 09:50:03;;;;;;;6.40;1.00;;;24.50;57.70;;;;;;5096505;28;20093;-85
2022/07/02 09:52:29;;;;;;;2.30;1.00;;;24.50;63.90;;;;;;5091895;28;20030;-86
2022/07/02 09:54:55;;;;;;;1.42;0.80;;;24.60;64.80;;;;;;5112264;28;20035;-85
2022/07/02 09:57:21;;;;;;;2.50;0.90;;;25.10;66.30;;;;;;5116552;28;20043;-84
2022/07/02 09:59:46;;;;;;;2.33;0.80;;;25.30;64.70;;;;;;5111315;28;20043;-85
2022/07/02 10:02:24;;;;;;;1.45;0.80;;;25.70;63.50;;;;;;5127074;27;20521;-85
2022/07/02 10:04:53;;;;;;;2.28;1.00;;;25.70;54.30;;;;;;5092746;28;20036;-86
2022/07/02 10:07:23;;;;;;;1.63;1.05;;;25.80;55.90;;;;;;5087591;28;20031;-85
2022/07/02 10:09:52;;;;;;;2.15;0.85;;;25.70;54.40;;;;;;5095409;28;20027;-85
2022/07/02 10:12:19;;;;;;;2.28;1.20;;;25.90;54.50;;;;;;5111472;27;20039;-85
2022/07/02 10:14:46;;;;;;;1.50;0.80;;;26.20;57.50;;;;;;5115645;27;20036;-85
2022/07/02 10:17:14;;;;;;;2.22;1.00;;;26.60;57.20;;;;;;5095915;28;20039;-85
2022/07/02 10:19:40;;;;;;;1.98;0.70;;;26.10;52.00;;;;;;5089041;28;20098;-86
2022/07/02 10:22:07;;;;;;;2.67;1.00;;;25.60;52.10;;;;;;5089335;27;20032;-85
2022/07/02 10:24:34;;;;;;;1.80;0.80;;;25.30;52.70;;;;;;5089453;28;20027;-85
2022/07/02 10:27:01;;;;;;;1.00;0.75;;;25.60;55.30;;;;;;5084419;28;20127;-85
2022/07/02 10:29:28;;;;;;;1.20;0.82;;;25.50;55.10;;;;;;5105144;27;20028;-85
2022/07/02 10:32:32;;;;;;;1.52;0.73;;;25.80;53.20;;;;;;5115073;27;20096;-85
2022/07/02 10:35:06;;;;;;;2.38;0.88;;;25.70;50.20;;;;;;5087990;28;20032;-85
2022/07/02 10:37:32;;;;;;;4.55;0.90;;;25.90;50.50;;;;;;5103491;27;20082;-86
2022/07/02 10:40:02;;;;;;;1.10;0.70;;;25.70;51.70;;;;;;5099160;27;20032;-85
2022/07/02 10:42:38;;;;;;;2.50;0.98;;;25.90;50.30;;;;;;5092071;28;20450;-85
2022/07/02 10:45:12;;;;;;;2.25;0.85;;;26.10;48.80;;;;;;5106809;28;20036;-85
2022/07/02 10:47:53;;;;;;;2.28;0.90;;;26.30;50.60;;;;;;5115805;27;20035;-85
2022/07/02 10:50:21;;;;;;;2.50;0.93;;;26.70;50.40;;;;;;5096251;27;20043;-85
2022/07/02 10:52:51;;;;;;;2.00;1.10;;;27.00;50.60;;;;;;5105330;28;20557;-86
2022/07/02 10:55:28;;;;;;;3.65;1.05;;;26.60;49.90;;;;;;5101460;28;20558;-86
2022/07/02 10:58:05;;;;;;;1.80;0.90;;;26.70;48.40;;;;;;5122393;27;20081;-85
2022/07/02 11:00:40;;;;;;;2.35;0.90;;;26.60;48.50;;;;;;5120945;27;20035;-86
2022/07/02 11:03:25;;;;;;;2.95;0.85;;;26.50;48.30;;;;;;5117457;27;20453;-86
2022/07/02 11:06:04;;;;;;;2.60;0.98;;;26.80;48.40;;;;;;5101802;28;20517;-86
2022/07/02 11:08:44;;;;;;;2.00;0.80;;;27.00;48.70;;;;;;5124428;27;20042;-86
2022/07/02 11:11:12;;;;;;;1.05;0.63;;;27.40;49.40;;;;;;5107215;27;20116;-86
2022/07/02 11:13:54;;;;;;;2.67;1.00;;;27.60;48.50;;;;;;5121694;27;20035;-86
2022/07/02 11:16:28;;;;;;;1.93;0.93;;;27.70;46.30;;;;;;5081106;28;20638;-86
2022/07/02 11:18:55;;;;;;;1.33;0.60;;;27.50;47.70;;;;;;5107661;27;20046;-88
2022/07/02 11:21:23;;;;;;;2.50;0.90;;;27.60;48.30;;;;;;5111759;28;20040;-87
2022/07/02 11:23:50;;;;;;;2.97;1.00;;;27.60;47.00;;;;;;5112443;27;20414;-88
2022/07/02 11:26:29;;;;;;;2.78;1.10;;;27.80;46.40;;;;;;5106221;28;20043;-90
2022/07/02 11:29:01;;;;;;;1.15;0.73;;;27.60;45.80;;;;;;5089963;28;20036;-88
2022/07/02 11:31:26;;;;;;;2.27;1.07;;;27.10;47.00;;;;;;5104032;28;20055;-87
2022/07/02 11:33:55;;;;;;;1.42;0.85;;;26.70;46.90;;;;;;5100404;27;20254;-87
2022/07/02 11:36:21;;;;;;;1.33;0.90;;;26.40;47.40;;;;;;5089088;28;20047;-87
2022/07/02 11:38:49;;;;;;;1.10;0.90;;;26.00;48.10;;;;;;5106251;28;20036;-87
2022/07/02 11:41:25;;;;;;;3.08;1.20;;;26.10;49.00;;;;;;5102513;28;20059;-87
2022/07/02 11:43:54;;;;;;;0.82;0.80;;;26.50;48.00;;;;;;5121052;28;20032;-83
2022/07/02 11:46:22;;;;;;;3.22;0.95;;;26.40;48.00;;;;;;5119737;28;20031;-88
2022/07/02 11:48:49;;;;;;;1.65;0.88;;;26.00;47.80;;;;;;5107041;27;20097;-88
2022/07/02 11:51:16;;;;;;;2.05;1.13;;;25.90;49.30;;;;;;5108512;27;20032;-88
2022/07/02 11:53:42;;;;;;;3.38;1.08;;;25.80;49.30;;;;;;5107587;28;20088;-88
2022/07/02 11:56:09;;;;;;;2.25;1.20;;;26.20;50.60;;;;;;5108012;28;20035;-88
2022/07/02 11:58:48;;;;;;;1.00;0.95;;;26.40;50.10;;;;;;5085201;28;20116;-88
2022/07/02 12:01:28;;;;;;;2.97;1.30;;;26.20;48.70;;;;;;5106679;28;20046;-88
2022/07/02 12:04:00;;;;;;;2.17;1.55;;;25.80;49.50;;;;;;5089331;28;20044;-88
2022/07/02 12:06:31;;;;;;;2.35;1.13;;;25.60;50.50;;;;;;5084577;28;20108;-87
2022/07/02 12:08:58;;;;;;;2.50;1.42;;;25.30;50.10;;;;;;5087496;28;20035;-87
2022/07/02 12:11:25;;;;;;;4.32;1.48;;;25.20;51.40;;;;;;5096094;28;20378;-88
2022/07/02 12:13:52;;;;;;;2.83;1.10;;;25.10;51.20;;;;;;5099571;27;20060;-88
2022/07/02 12:16:25;;;;;;;2.95;1.00;;;25.00;51.50;;;;;;5079988;28;20047;-88
2022/07/02 12:19:00;;;;;;;1.88;1.17;;;25.30;52.70;;;;;;5088865;28;20031;-88
2022/07/02 12:21:38;;;;;;;3.45;1.15;;;26.00;53.10;;;;;;5105307;27;20463;-89
2022/07/02 12:24:16;;;;;;;1.73;0.93;;;26.50;52.70;;;;;;5090964;28;20039;-88
2022/07/02 12:26:44;;;;;;;2.42;1.38;;;26.60;50.10;;;;;;5107251;27;20119;-88
2022/07/02 12:32:05;;;;;;;4.97;1.13;;;26.50;50.50;;;;;;5106665;27;20060;-88
2022/07/02 12:34:46;;;;;;;1.58;0.88;;;26.40;49.70;;;;;;5088892;28;20042;-87
2022/07/02 12:37:38;;;;;;;3.35;1.10;;;26.50;50.10;;;;;;5101469;28;20039;-88
2022/07/02 12:40:10;;;;;;;4.55;1.20;;;26.70;48.00;;;;;;5108991;27;20053;-88
2022/07/02 12:42:52;;;;;;;3.38;1.10;;;26.70;49.30;;;;;;5103817;28;20027;-88
2022/07/02 12:45:23;;;;;;;2.67;1.00;;;26.90;47.70;;;;;;5104063;28;20047;-87
2022/07/02 12:48:03;;;;;;;2.58;1.10;;;27.10;49.10;;;;;;5113372;28;20081;-88
2022/07/02 12:50:31;;;;;;;2.08;0.90;;;27.70;48.40;;;;;;5112301;27;20114;-88
2022/07/02 12:53:02;;;;;;;2.22;1.23;;;28.00;47.80;;;;;;5115782;28;20107;-87
2022/07/02 12:55:32;;;;;;;4.32;1.02;;;27.80;47.10;;;;;;5121249;28;20100;-86